sensor_id;sensor_type;location;lat;lon;timestamp;P1;durP1;ratioP1;P2;durP2;ratioP2
15480;SDS011;7842;50.904;6.670;2023-06-10T00:02:13;10.57;;;9.40;;
15480;SDS011;7842;50.904;6.670;2023-06-10T00:04:39;11.20;;;10.07;;
15480;SDS011;7842;50.904;6.670;2023-06-10T00:07:05;10.55;;;9.45;;
15480;SDS011;7842;50.904;6.670;2023-06-10T00:09:34;10.43;;;9.43;;
15480;SDS011;7842;50.904;6.670;2023-06-10T00:12:03;11.15;;;9.77;;
15480;SDS011;7842;50.904;6.670;2023-06-10T00:14:30;9.93;;;8.93;;
15480;SDS011;7842;50.904;6.670;2023-06-10T00:16:55;10.65;;;9.55;;
15480;SDS011;7842;50.904;6.670;2023-06-10T00:19:22;11.27;;;10.07;;
15480;SDS011;7842;50.904;6.670;2023-06-10T00:21:50;10.80;;;9.80;;
15480;SDS011;7842;50.904;6.670;2023-06-10T00:24:17;11.35;;;10.15;;
15480;SDS011;7842;50.904;6.670;2023-06-10T00:26:43;11.55;;;10.45;;
15480;SDS011;7842;50.904;6.670;2023-06-10T00:29:10;12.05;;;10.85;;
15480;SDS011;7842;50.904;6.670;2023-06-10T00:31:36;12.10;;;10.90;;
15480;SDS011;7842;50.904;6.670;2023-06-10T00:34:02;11.90;;;10.70;;
15480;SDS011;7842;50.904;6.670;2023-06-10T00:36:28;11.30;;;10.20;;
15480;SDS011;7842;50.904;6.670;2023-06-10T00:38:55;12.02;;;10.60;;
15480;SDS011;7842;50.904;6.670;2023-06-10T00:41:21;11.52;;;10.50;;
15480;SDS011;7842;50.904;6.670;2023-06-10T00:43:46;11.60;;;10.50;;
15480;SDS011;7842;50.904;6.670;2023-06-10T00:46:12;12.30;;;11.03;;
15480;SDS011;7842;50.904;6.670;2023-06-10T00:48:39;12.32;;;11.13;;
15480;SDS011;7842;50.904;6.670;2023-06-10T00:51:05;12.13;;;11.00;;
15480;SDS011;7842;50.904;6.670;2023-06-10T00:53:31;12.07;;;10.95;;
15480;SDS011;7842;50.904;6.670;2023-06-10T00:55:58;12.10;;;11.00;;
15480;SDS011;7842;50.904;6.670;2023-06-10T00:58:24;12.18;;;10.98;;
15480;SDS011;7842;50.904;6.670;2023-06-10T01:00:50;11.55;;;10.45;;
15480;SDS011;7842;50.904;6.670;2023-06-10T01:03:17;11.75;;;10.57;;
15480;SDS011;7842;50.904;6.670;2023-06-10T01:05:43;11.75;;;10.65;;
15480;SDS011;7842;50.904;6.670;2023-06-10T01:08:26;13.23;;;11.82;;
15480;SDS011;7842;50.904;6.670;2023-06-10T01:10:59;12.27;;;11.07;;
15480;SDS011;7842;50.904;6.670;2023-06-10T01:13:26;12.68;;;11.52;;
15480;SDS011;7842;50.904;6.670;2023-06-10T01:15:57;11.97;;;10.77;;
15480;SDS011;7842;50.904;6.670;2023-06-10T01:18:23;11.93;;;10.73;;
15480;SDS011;7842;50.904;6.670;2023-06-10T01:20:55;12.27;;;11.07;;
15480;SDS011;7842;50.904;6.670;2023-06-10T01:23:22;11.85;;;10.75;;
15480;SDS011;7842;50.904;6.670;2023-06-10T01:25:59;12.50;;;11.20;;
15480;SDS011;7842;50.904;6.670;2023-06-10T01:28:31;11.88;;;10.77;;
15480;SDS011;7842;50.904;6.670;2023-06-10T01:31:12;12.70;;;11.60;;
15480;SDS011;7842;50.904;6.670;2023-06-10T01:33:59;12.20;;;11.10;;
15480;SDS011;7842;50.904;6.670;2023-06-10T01:36:25;12.77;;;11.57;;
15480;SDS011;7842;50.904;6.670;2023-06-10T01:38:52;12.95;;;11.73;;
15480;SDS011;7842;50.904;6.670;2023-06-10T01:41:18;12.68;;;11.43;;
15480;SDS011;7842;50.904;6.670;2023-06-10T01:43:46;11.95;;;10.95;;
15480;SDS011;7842;50.904;6.670;2023-06-10T01:46:13;13.10;;;11.90;;
15480;SDS011;7842;50.904;6.670;2023-06-10T01:48:41;13.20;;;11.90;;
15480;SDS011;7842;50.904;6.670;2023-06-10T01:51:07;13.30;;;12.10;;
15480;SDS011;7842;50.904;6.670;2023-06-10T01:53:32;12.20;;;11.00;;
15480;SDS011;7842;50.904;6.670;2023-06-10T01:55:58;11.88;;;10.68;;
15480;SDS011;7842;50.904;6.670;2023-06-10T01:58:24;12.00;;;10.80;;
15480;SDS011;7842;50.904;6.670;2023-06-10T02:00:50;12.43;;;11.13;;
15480;SDS011;7842;50.904;6.670;2023-06-10T02:03:16;12.80;;;11.60;;
15480;SDS011;7842;50.904;6.670;2023-06-10T02:05:42;12.88;;;11.57;;
15480;SDS011;7842;50.904;6.670;2023-06-10T02:08:08;12.85;;;11.65;;
15480;SDS011;7842;50.904;6.670;2023-06-10T02:10:33;13.18;;;11.88;;
15480;SDS011;7842;50.904;6.670;2023-06-10T02:13:02;13.30;;;11.85;;
15480;SDS011;7842;50.904;6.670;2023-06-10T02:15:27;12.37;;;11.17;;
15480;SDS011;7842;50.904;6.670;2023-06-10T02:17:53;12.40;;;11.20;;
15480;SDS011;7842;50.904;6.670;2023-06-10T02:20:19;13.13;;;11.73;;
15480;SDS011;7842;50.904;6.670;2023-06-10T02:22:45;13.55;;;12.25;;
15480;SDS011;7842;50.904;6.670;2023-06-10T02:25:11;12.80;;;11.55;;
15480;SDS011;7842;50.904;6.670;2023-06-10T02:27:37;12.73;;;11.52;;
15480;SDS011;7842;50.904;6.670;2023-06-10T02:30:03;12.57;;;11.47;;
15480;SDS011;7842;50.904;6.670;2023-06-10T02:32:29;13.35;;;11.95;;
15480;SDS011;7842;50.904;6.670;2023-06-10T02:34:54;13.60;;;12.30;;
15480;SDS011;7842;50.904;6.670;2023-06-10T02:37:20;12.80;;;11.60;;
15480;SDS011;7842;50.904;6.670;2023-06-10T02:39:46;13.37;;;12.07;;
15480;SDS011;7842;50.904;6.670;2023-06-10T02:42:11;13.90;;;12.60;;
15480;SDS011;7842;50.904;6.670;2023-06-10T02:44:37;13.00;;;11.80;;
15480;SDS011;7842;50.904;6.670;2023-06-10T02:47:03;13.40;;;12.20;;
15480;SDS011;7842;50.904;6.670;2023-06-10T02:49:29;13.25;;;11.95;;
15480;SDS011;7842;50.904;6.670;2023-06-10T02:51:55;13.20;;;11.95;;
15480;SDS011;7842;50.904;6.670;2023-06-10T02:54:22;13.82;;;12.43;;
15480;SDS011;7842;50.904;6.670;2023-06-10T02:56:51;14.38;;;13.00;;
15480;SDS011;7842;50.904;6.670;2023-06-10T02:59:17;14.73;;;13.32;;
15480;SDS011;7842;50.904;6.670;2023-06-10T03:01:43;13.55;;;12.32;;
15480;SDS011;7842;50.904;6.670;2023-06-10T03:04:08;14.10;;;12.80;;
15480;SDS011;7842;50.904;6.670;2023-06-10T03:06:35;13.90;;;12.60;;
15480;SDS011;7842;50.904;6.670;2023-06-10T03:09:04;13.13;;;11.93;;
15480;SDS011;7842;50.904;6.670;2023-06-10T03:11:29;14.02;;;12.63;;
15480;SDS011;7842;50.904;6.670;2023-06-10T03:13:56;13.90;;;12.63;;
15480;SDS011;7842;50.904;6.670;2023-06-10T03:16:22;13.73;;;12.43;;
15480;SDS011;7842;50.904;6.670;2023-06-10T03:18:50;13.70;;;12.30;;
15480;SDS011;7842;50.904;6.670;2023-06-10T03:21:15;13.70;;;12.40;;
15480;SDS011;7842;50.904;6.670;2023-06-10T03:23:41;13.43;;;12.23;;
15480;SDS011;7842;50.904;6.670;2023-06-10T03:26:07;14.50;;;13.00;;
15480;SDS011;7842;50.904;6.670;2023-06-10T03:28:33;14.30;;;13.00;;
15480;SDS011;7842;50.904;6.670;2023-06-10T03:30:58;14.90;;;13.45;;
15480;SDS011;7842;50.904;6.670;2023-06-10T03:33:24;14.47;;;13.10;;
15480;SDS011;7842;50.904;6.670;2023-06-10T03:35:51;14.10;;;12.68;;
15480;SDS011;7842;50.904;6.670;2023-06-10T03:38:16;13.77;;;12.55;;
15480;SDS011;7842;50.904;6.670;2023-06-10T03:40:42;14.00;;;12.70;;
15480;SDS011;7842;50.904;6.670;2023-06-10T03:43:08;14.63;;;13.23;;
15480;SDS011;7842;50.904;6.670;2023-06-10T03:45:33;15.00;;;13.50;;
15480;SDS011;7842;50.904;6.670;2023-06-10T03:48:01;14.43;;;13.03;;
15480;SDS011;7842;50.904;6.670;2023-06-10T03:50:28;13.93;;;12.65;;
15480;SDS011;7842;50.904;6.670;2023-06-10T03:52:54;14.32;;;12.95;;
15480;SDS011;7842;50.904;6.670;2023-06-10T03:55:19;14.10;;;12.70;;
15480;SDS011;7842;50.904;6.670;2023-06-10T03:57:46;13.85;;;12.55;;
15480;SDS011;7842;50.904;6.670;2023-06-10T04:00:13;14.30;;;12.90;;
15480;SDS011;7842;50.904;6.670;2023-06-10T04:02:40;14.65;;;13.27;;
15480;SDS011;7842;50.904;6.670;2023-06-10T04:05:13;14.32;;;12.88;;
15480;SDS011;7842;50.904;6.670;2023-06-10T04:07:39;13.55;;;12.25;;
15480;SDS011;7842;50.904;6.670;2023-06-10T04:10:07;13.45;;;12.15;;
15480;SDS011;7842;50.904;6.670;2023-06-10T04:12:33;13.80;;;12.43;;
15480;SDS011;7842;50.904;6.670;2023-06-10T04:14:59;13.73;;;12.40;;
15480;SDS011;7842;50.904;6.670;2023-06-10T04:17:28;13.52;;;12.23;;
15480;SDS011;7842;50.904;6.670;2023-06-10T04:19:53;13.70;;;12.40;;
15480;SDS011;7842;50.904;6.670;2023-06-10T04:22:19;14.40;;;13.05;;
15480;SDS011;7842;50.904;6.670;2023-06-10T04:24:45;14.57;;;13.17;;
15480;SDS011;7842;50.904;6.670;2023-06-10T04:27:11;14.25;;;12.93;;
15480;SDS011;7842;50.904;6.670;2023-06-10T04:29:36;15.27;;;13.80;;
15480;SDS011;7842;50.904;6.670;2023-06-10T04:32:02;15.27;;;13.77;;
15480;SDS011;7842;50.904;6.670;2023-06-10T04:34:28;14.85;;;13.45;;
15480;SDS011;7842;50.904;6.670;2023-06-10T04:36:54;14.87;;;13.53;;
15480;SDS011;7842;50.904;6.670;2023-06-10T04:39:19;15.23;;;13.73;;
15480;SDS011;7842;50.904;6.670;2023-06-10T04:41:45;15.23;;;13.67;;
15480;SDS011;7842;50.904;6.670;2023-06-10T04:44:11;15.52;;;14.02;;
15480;SDS011;7842;50.904;6.670;2023-06-10T04:46:38;15.07;;;13.60;;
15480;SDS011;7842;50.904;6.670;2023-06-10T04:49:04;15.20;;;13.77;;
15480;SDS011;7842;50.904;6.670;2023-06-10T04:51:32;14.90;;;13.50;;
15480;SDS011;7842;50.904;6.670;2023-06-10T04:53:59;14.75;;;13.30;;
15480;SDS011;7842;50.904;6.670;2023-06-10T04:56:28;14.45;;;13.05;;
15480;SDS011;7842;50.904;6.670;2023-06-10T04:58:55;14.43;;;13.02;;
15480;SDS011;7842;50.904;6.670;2023-06-10T05:01:23;14.70;;;13.20;;
15480;SDS011;7842;50.904;6.670;2023-06-10T05:03:49;14.07;;;12.77;;
15480;SDS011;7842;50.904;6.670;2023-06-10T05:06:15;15.40;;;13.90;;
15480;SDS011;7842;50.904;6.670;2023-06-10T05:08:44;14.75;;;13.40;;
15480;SDS011;7842;50.904;6.670;2023-06-10T05:11:09;14.30;;;13.00;;
15480;SDS011;7842;50.904;6.670;2023-06-10T05:13:35;14.97;;;13.50;;
15480;SDS011;7842;50.904;6.670;2023-06-10T05:16:01;15.10;;;13.57;;
15480;SDS011;7842;50.904;6.670;2023-06-10T05:18:27;15.00;;;13.45;;
15480;SDS011;7842;50.904;6.670;2023-06-10T05:20:52;15.03;;;13.63;;
15480;SDS011;7842;50.904;6.670;2023-06-10T05:23:19;14.23;;;12.93;;
15480;SDS011;7842;50.904;6.670;2023-06-10T05:25:44;14.30;;;12.90;;
15480;SDS011;7842;50.904;6.670;2023-06-10T05:28:10;15.07;;;13.57;;
15480;SDS011;7842;50.904;6.670;2023-06-10T05:30:36;15.27;;;13.68;;
15480;SDS011;7842;50.904;6.670;2023-06-10T05:33:02;14.70;;;13.27;;
15480;SDS011;7842;50.904;6.670;2023-06-10T05:35:29;14.93;;;13.48;;
15480;SDS011;7842;50.904;6.670;2023-06-10T05:37:54;14.57;;;13.07;;
15480;SDS011;7842;50.904;6.670;2023-06-10T05:40:20;13.95;;;12.52;;
15480;SDS011;7842;50.904;6.670;2023-06-10T05:42:46;14.80;;;13.30;;
15480;SDS011;7842;50.904;6.670;2023-06-10T05:45:11;13.38;;;11.98;;
15480;SDS011;7842;50.904;6.670;2023-06-10T05:47:37;13.10;;;11.80;;
15480;SDS011;7842;50.904;6.670;2023-06-10T05:50:02;12.07;;;10.87;;
15480;SDS011;7842;50.904;6.670;2023-06-10T05:52:32;12.30;;;11.00;;
15480;SDS011;7842;50.904;6.670;2023-06-10T05:55:04;13.65;;;11.35;;
15480;SDS011;7842;50.904;6.670;2023-06-10T05:57:30;14.13;;;11.80;;
15480;SDS011;7842;50.904;6.670;2023-06-10T05:59:56;13.30;;;11.70;;
15480;SDS011;7842;50.904;6.670;2023-06-10T06:02:22;12.53;;;11.20;;
15480;SDS011;7842;50.904;6.670;2023-06-10T06:04:47;14.50;;;11.27;;
15480;SDS011;7842;50.904;6.670;2023-06-10T06:07:13;15.80;;;11.80;;
15480;SDS011;7842;50.904;6.670;2023-06-10T06:09:41;12.90;;;11.52;;
15480;SDS011;7842;50.904;6.670;2023-06-10T06:12:07;13.82;;;11.10;;
15480;SDS011;7842;50.904;6.670;2023-06-10T06:14:36;12.43;;;10.33;;
15480;SDS011;7842;50.904;6.670;2023-06-10T06:17:03;11.75;;;9.60;;
15480;SDS011;7842;50.904;6.670;2023-06-10T06:19:28;10.57;;;9.47;;
15480;SDS011;7842;50.904;6.670;2023-06-10T06:21:54;9.95;;;8.95;;
15480;SDS011;7842;50.904;6.670;2023-06-10T06:24:20;10.17;;;9.17;;
15480;SDS011;7842;50.904;6.670;2023-06-10T06:26:45;9.85;;;8.65;;
15480;SDS011;7842;50.904;6.670;2023-06-10T06:29:11;9.97;;;9.00;;
15480;SDS011;7842;50.904;6.670;2023-06-10T06:31:37;9.70;;;8.53;;
15480;SDS011;7842;50.904;6.670;2023-06-10T06:34:02;9.77;;;8.02;;
15480;SDS011;7842;50.904;6.670;2023-06-10T06:36:28;8.73;;;7.90;;
15480;SDS011;7842;50.904;6.670;2023-06-10T06:38:53;10.53;;;7.63;;
15480;SDS011;7842;50.904;6.670;2023-06-10T06:41:19;9.27;;;7.82;;
15480;SDS011;7842;50.904;6.670;2023-06-10T06:43:46;8.93;;;7.85;;
15480;SDS011;7842;50.904;6.670;2023-06-10T06:46:12;8.45;;;7.57;;
15480;SDS011;7842;50.904;6.670;2023-06-10T06:48:38;10.43;;;7.78;;
15480;SDS011;7842;50.904;6.670;2023-06-10T06:51:04;8.68;;;7.80;;
15480;SDS011;7842;50.904;6.670;2023-06-10T06:53:29;8.73;;;7.83;;
15480;SDS011;7842;50.904;6.670;2023-06-10T06:55:55;9.65;;;7.93;;
15480;SDS011;7842;50.904;6.670;2023-06-10T06:58:20;8.57;;;7.78;;
15480;SDS011;7842;50.904;6.670;2023-06-10T07:00:46;10.33;;;7.97;;
15480;SDS011;7842;50.904;6.670;2023-06-10T07:03:12;9.15;;;8.10;;
15480;SDS011;7842;50.904;6.670;2023-06-10T07:05:37;9.13;;;8.10;;
15480;SDS011;7842;50.904;6.670;2023-06-10T07:08:03;9.07;;;7.80;;
15480;SDS011;7842;50.904;6.670;2023-06-10T07:10:29;9.73;;;8.05;;
15480;SDS011;7842;50.904;6.670;2023-06-10T07:12:55;8.97;;;8.07;;
15480;SDS011;7842;50.904;6.670;2023-06-10T07:15:20;9.35;;;8.35;;
15480;SDS011;7842;50.904;6.670;2023-06-10T07:17:46;9.40;;;8.50;;
15480;SDS011;7842;50.904;6.670;2023-06-10T07:20:12;9.18;;;8.27;;
15480;SDS011;7842;50.904;6.670;2023-06-10T07:22:39;9.80;;;8.40;;
15480;SDS011;7842;50.904;6.670;2023-06-10T07:25:06;10.50;;;8.20;;
15480;SDS011;7842;50.904;6.670;2023-06-10T07:27:31;8.70;;;7.80;;
15480;SDS011;7842;50.904;6.670;2023-06-10T07:29:57;8.73;;;7.83;;
15480;SDS011;7842;50.904;6.670;2023-06-10T07:32:23;9.75;;;8.30;;
15480;SDS011;7842;50.904;6.670;2023-06-10T07:34:49;8.93;;;7.93;;
15480;SDS011;7842;50.904;6.670;2023-06-10T07:37:15;9.27;;;8.25;;
15480;SDS011;7842;50.904;6.670;2023-06-10T07:39:41;8.77;;;7.87;;
15480;SDS011;7842;50.904;6.670;2023-06-10T07:42:08;10.90;;;8.05;;
15480;SDS011;7842;50.904;6.670;2023-06-10T07:44:33;9.07;;;8.03;;
15480;SDS011;7842;50.904;6.670;2023-06-10T07:46:59;8.77;;;7.90;;
15480;SDS011;7842;50.904;6.670;2023-06-10T07:49:25;9.52;;;8.50;;
15480;SDS011;7842;50.904;6.670;2023-06-10T07:51:50;9.20;;;8.30;;
15480;SDS011;7842;50.904;6.670;2023-06-10T07:54:16;11.40;;;8.88;;
15480;SDS011;7842;50.904;6.670;2023-06-10T07:56:41;8.63;;;7.73;;
15480;SDS011;7842;50.904;6.670;2023-06-10T07:59:07;10.13;;;7.97;;
15480;SDS011;7842;50.904;6.670;2023-06-10T08:01:32;9.00;;;8.18;;
15480;SDS011;7842;50.904;6.670;2023-06-10T08:04:00;9.30;;;8.40;;
15480;SDS011;7842;50.904;6.670;2023-06-10T08:06:26;9.07;;;8.10;;
15480;SDS011;7842;50.904;6.670;2023-06-10T08:08:52;9.50;;;7.90;;
15480;SDS011;7842;50.904;6.670;2023-06-10T08:11:17;8.98;;;8.07;;
15480;SDS011;7842;50.904;6.670;2023-06-10T08:13:43;9.47;;;8.47;;
15480;SDS011;7842;50.904;6.670;2023-06-10T08:16:08;9.27;;;8.30;;
15480;SDS011;7842;50.904;6.670;2023-06-10T08:18:35;10.07;;;7.95;;
15480;SDS011;7842;50.904;6.670;2023-06-10T08:21:00;8.95;;;7.90;;
15480;SDS011;7842;50.904;6.670;2023-06-10T08:23:26;8.83;;;7.93;;
15480;SDS011;7842;50.904;6.670;2023-06-10T08:25:51;8.90;;;7.97;;
15480;SDS011;7842;50.904;6.670;2023-06-10T08:28:17;9.82;;;7.65;;
15480;SDS011;7842;50.904;6.670;2023-06-10T08:30:43;8.32;;;7.53;;
15480;SDS011;7842;50.904;6.670;2023-06-10T08:33:10;9.10;;;8.20;;
15480;SDS011;7842;50.904;6.670;2023-06-10T08:35:35;9.83;;;8.10;;
15480;SDS011;7842;50.904;6.670;2023-06-10T08:38:01;8.30;;;7.50;;
15480;SDS011;7842;50.904;6.670;2023-06-10T08:40:26;8.10;;;7.30;;
15480;SDS011;7842;50.904;6.670;2023-06-10T08:45:21;9.23;;;7.30;;
15480;SDS011;7842;50.904;6.670;2023-06-10T08:47:49;10.10;;;7.82;;
15480;SDS011;7842;50.904;6.670;2023-06-10T08:50:18;11.48;;;7.70;;
15480;SDS011;7842;50.904;6.670;2023-06-10T08:52:44;9.02;;;7.85;;
15480;SDS011;7842;50.904;6.670;2023-06-10T08:55:15;9.23;;;8.10;;
15480;SDS011;7842;50.904;6.670;2023-06-10T08:57:45;9.10;;;7.82;;
15480;SDS011;7842;50.904;6.670;2023-06-10T09:00:13;8.20;;;7.40;;
15480;SDS011;7842;50.904;6.670;2023-06-10T09:02:39;8.75;;;7.85;;
15480;SDS011;7842;50.904;6.670;2023-06-10T09:05:05;8.52;;;7.63;;
15480;SDS011;7842;50.904;6.670;2023-06-10T09:07:32;8.55;;;7.72;;
15480;SDS011;7842;50.904;6.670;2023-06-10T09:10:01;8.98;;;7.75;;
15480;SDS011;7842;50.904;6.670;2023-06-10T09:12:28;9.00;;;7.93;;
15480;SDS011;7842;50.904;6.670;2023-06-10T09:14:55;9.23;;;7.95;;
15480;SDS011;7842;50.904;6.670;2023-06-10T09:17:20;8.57;;;7.75;;
15480;SDS011;7842;50.904;6.670;2023-06-10T09:19:47;9.02;;;7.57;;
15480;SDS011;7842;50.904;6.670;2023-06-10T09:22:14;8.87;;;7.70;;
15480;SDS011;7842;50.904;6.670;2023-06-10T09:24:39;9.05;;;7.88;;
15480;SDS011;7842;50.904;6.670;2023-06-10T09:27:06;8.38;;;7.57;;
15480;SDS011;7842;50.904;6.670;2023-06-10T09:29:52;8.23;;;7.43;;
15480;SDS011;7842;50.904;6.670;2023-06-10T09:32:20;8.82;;;7.93;;
15480;SDS011;7842;50.904;6.670;2023-06-10T09:34:46;9.07;;;8.18;;
15480;SDS011;7842;50.904;6.670;2023-06-10T09:37:12;8.82;;;7.93;;
15480;SDS011;7842;50.904;6.670;2023-06-10T09:39:39;10.02;;;8.48;;
15480;SDS011;7842;50.904;6.670;2023-06-10T09:42:15;9.23;;;8.23;;
15480;SDS011;7842;50.904;6.670;2023-06-10T09:44:41;8.75;;;7.95;;
15480;SDS011;7842;50.904;6.670;2023-06-10T09:47:07;9.33;;;8.27;;
15480;SDS011;7842;50.904;6.670;2023-06-10T09:49:33;9.00;;;8.10;;
15480;SDS011;7842;50.904;6.670;2023-06-10T09:52:04;9.50;;;8.50;;
15480;SDS011;7842;50.904;6.670;2023-06-10T09:54:31;10.27;;;8.50;;
15480;SDS011;7842;50.904;6.670;2023-06-10T09:56:57;9.57;;;8.40;;
15480;SDS011;7842;50.904;6.670;2023-06-10T09:59:28;9.68;;;8.75;;
15480;SDS011;7842;50.904;6.670;2023-06-10T10:01:56;9.00;;;8.13;;
15480;SDS011;7842;50.904;6.670;2023-06-10T10:04:23;9.77;;;8.43;;
15480;SDS011;7842;50.904;6.670;2023-06-10T10:06:50;9.20;;;8.30;;
15480;SDS011;7842;50.904;6.670;2023-06-10T10:09:18;10.18;;;8.43;;
15480;SDS011;7842;50.904;6.670;2023-06-10T10:11:44;9.13;;;8.30;;
15480;SDS011;7842;50.904;6.670;2023-06-10T10:14:11;9.02;;;8.15;;
15480;SDS011;7842;50.904;6.670;2023-06-10T10:16:40;9.30;;;8.20;;
15480;SDS011;7842;50.904;6.670;2023-06-10T10:22:18;8.90;;;8.00;;
15480;SDS011;7842;50.904;6.670;2023-06-10T10:24:55;8.85;;;8.05;;
15480;SDS011;7842;50.904;6.670;2023-06-10T10:27:29;9.13;;;8.27;;
15480;SDS011;7842;50.904;6.670;2023-06-10T10:30:09;9.00;;;8.10;;
15480;SDS011;7842;50.904;6.670;2023-06-10T10:32:38;9.30;;;8.40;;
15480;SDS011;7842;50.904;6.670;2023-06-10T10:35:08;8.98;;;8.15;;
15480;SDS011;7842;50.904;6.670;2023-06-10T10:37:44;9.30;;;8.50;;
15480;SDS011;7842;50.904;6.670;2023-06-10T10:40:11;8.98;;;8.15;;
15480;SDS011;7842;50.904;6.670;2023-06-10T10:42:38;9.52;;;8.57;;
15480;SDS011;7842;50.904;6.670;2023-06-10T10:45:04;9.43;;;8.60;;
15480;SDS011;7842;50.904;6.670;2023-06-10T10:47:31;9.20;;;8.25;;
15480;SDS011;7842;50.904;6.670;2023-06-10T10:50:00;10.57;;;8.40;;
15480;SDS011;7842;50.904;6.670;2023-06-10T10:52:28;9.50;;;8.63;;
15480;SDS011;7842;50.904;6.670;2023-06-10T10:55:19;9.25;;;8.38;;
15480;SDS011;7842;50.904;6.670;2023-06-10T10:57:44;9.48;;;8.48;;
15480;SDS011;7842;50.904;6.670;2023-06-10T11:00:29;10.38;;;8.10;;
15480;SDS011;7842;50.904;6.670;2023-06-10T11:02:59;9.32;;;8.43;;
15480;SDS011;7842;50.904;6.670;2023-06-10T11:05:32;9.27;;;8.30;;
15480;SDS011;7842;50.904;6.670;2023-06-10T11:08:04;9.18;;;8.27;;
15480;SDS011;7842;50.904;6.670;2023-06-10T11:10:37;9.55;;;8.50;;
15480;SDS011;7842;50.904;6.670;2023-06-10T11:13:13;8.90;;;8.10;;
15480;SDS011;7842;50.904;6.670;2023-06-10T11:15:49;8.82;;;7.78;;
15480;SDS011;7842;50.904;6.670;2023-06-10T11:18:30;9.70;;;8.57;;
15480;SDS011;7842;50.904;6.670;2023-06-10T11:21:04;9.43;;;8.52;;
15480;SDS011;7842;50.904;6.670;2023-06-10T11:23:34;9.32;;;8.43;;
15480;SDS011;7842;50.904;6.670;2023-06-10T11:31:26;8.40;;;7.70;;
15480;SDS011;7842;50.904;6.670;2023-06-10T11:33:56;8.88;;;8.02;;
15480;SDS011;7842;50.904;6.670;2023-06-10T11:36:23;9.43;;;8.20;;
15480;SDS011;7842;50.904;6.670;2023-06-10T11:38:50;8.68;;;7.75;;
15480;SDS011;7842;50.904;6.670;2023-06-10T11:41:18;9.23;;;8.32;;
15480;SDS011;7842;50.904;6.670;2023-06-10T11:43:44;9.35;;;8.43;;
15480;SDS011;7842;50.904;6.670;2023-06-10T11:46:10;9.40;;;8.60;;
15480;SDS011;7842;50.904;6.670;2023-06-10T11:48:37;9.43;;;8.25;;
15480;SDS011;7842;50.904;6.670;2023-06-10T11:51:09;9.27;;;8.13;;
15480;SDS011;7842;50.904;6.670;2023-06-10T11:53:37;8.35;;;7.55;;
15480;SDS011;7842;50.904;6.670;2023-06-10T11:56:02;8.60;;;7.70;;
15480;SDS011;7842;50.904;6.670;2023-06-10T11:58:28;8.60;;;7.80;;
15480;SDS011;7842;50.904;6.670;2023-06-10T12:00:55;8.52;;;7.70;;
15480;SDS011;7842;50.904;6.670;2023-06-10T12:03:26;8.05;;;7.10;;
15480;SDS011;7842;50.904;6.670;2023-06-10T12:05:58;7.80;;;7.10;;
15480;SDS011;7842;50.904;6.670;2023-06-10T12:08:25;7.83;;;7.13;;
15480;SDS011;7842;50.904;6.670;2023-06-10T12:10:52;7.68;;;6.97;;
15480;SDS011;7842;50.904;6.670;2023-06-10T12:13:19;8.47;;;6.90;;
15480;SDS011;7842;50.904;6.670;2023-06-10T12:15:45;8.02;;;7.22;;
15480;SDS011;7842;50.904;6.670;2023-06-10T12:18:20;7.78;;;7.07;;
15480;SDS011;7842;50.904;6.670;2023-06-10T12:20:47;8.18;;;7.38;;
15480;SDS011;7842;50.904;6.670;2023-06-10T12:23:14;8.63;;;7.10;;
15480;SDS011;7842;50.904;6.670;2023-06-10T12:25:50;10.45;;;8.63;;
15480;SDS011;7842;50.904;6.670;2023-06-10T12:28:20;9.85;;;8.10;;
15480;SDS011;7842;50.904;6.670;2023-06-10T12:30:50;8.93;;;8.10;;
15480;SDS011;7842;50.904;6.670;2023-06-10T12:33:34;9.10;;;8.25;;
15480;SDS011;7842;50.904;6.670;2023-06-10T12:36:02;9.40;;;8.00;;
15480;SDS011;7842;50.904;6.670;2023-06-10T12:38:29;9.32;;;8.43;;
15480;SDS011;7842;50.904;6.670;2023-06-10T12:41:03;9.13;;;8.30;;
15480;SDS011;7842;50.904;6.670;2023-06-10T12:43:30;9.23;;;8.43;;
15480;SDS011;7842;50.904;6.670;2023-06-10T12:46:07;10.43;;;8.40;;
15480;SDS011;7842;50.904;6.670;2023-06-10T12:48:37;8.88;;;7.97;;
15480;SDS011;7842;50.904;6.670;2023-06-10T12:51:19;9.05;;;7.55;;
15480;SDS011;7842;50.904;6.670;2023-06-10T12:53:46;7.82;;;7.13;;
15480;SDS011;7842;50.904;6.670;2023-06-10T12:56:14;7.70;;;7.00;;
15480;SDS011;7842;50.904;6.670;2023-06-10T12:58:40;9.68;;;7.38;;
15480;SDS011;7842;50.904;6.670;2023-06-10T13:01:06;7.70;;;7.00;;
15480;SDS011;7842;50.904;6.670;2023-06-10T13:03:32;8.30;;;7.47;;
15480;SDS011;7842;50.904;6.670;2023-06-10T13:05:58;7.90;;;7.10;;
15480;SDS011;7842;50.904;6.670;2023-06-10T13:08:24;7.70;;;7.00;;
15480;SDS011;7842;50.904;6.670;2023-06-10T13:10:52;8.07;;;7.28;;
15480;SDS011;7842;50.904;6.670;2023-06-10T13:13:17;8.73;;;7.93;;
15480;SDS011;7842;50.904;6.670;2023-06-10T13:15:43;8.27;;;7.47;;
15480;SDS011;7842;50.904;6.670;2023-06-10T13:18:12;8.52;;;7.72;;
15480;SDS011;7842;50.904;6.670;2023-06-10T13:20:38;8.38;;;7.57;;
15480;SDS011;7842;50.904;6.670;2023-06-10T13:23:04;8.25;;;7.55;;
15480;SDS011;7842;50.904;6.670;2023-06-10T13:25:30;8.20;;;7.43;;
15480;SDS011;7842;50.904;6.670;2023-06-10T13:27:55;7.73;;;7.00;;
15480;SDS011;7842;50.904;6.670;2023-06-10T13:30:21;8.23;;;7.43;;
15480;SDS011;7842;50.904;6.670;2023-06-10T13:32:47;8.73;;;7.38;;
15480;SDS011;7842;50.904;6.670;2023-06-10T13:35:13;7.70;;;6.93;;
15480;SDS011;7842;50.904;6.670;2023-06-10T13:37:38;7.95;;;7.20;;
15480;SDS011;7842;50.904;6.670;2023-06-10T13:40:05;8.00;;;6.93;;
15480;SDS011;7842;50.904;6.670;2023-06-10T13:42:31;7.78;;;6.97;;
15480;SDS011;7842;50.904;6.670;2023-06-10T13:44:57;8.40;;;6.60;;
15480;SDS011;7842;50.904;6.670;2023-06-10T13:47:23;7.23;;;6.53;;
15480;SDS011;7842;50.904;6.670;2023-06-10T13:49:49;7.53;;;6.47;;
15480;SDS011;7842;50.904;6.670;2023-06-10T13:52:15;7.90;;;7.10;;
15480;SDS011;7842;50.904;6.670;2023-06-10T13:54:43;7.75;;;7.05;;
15480;SDS011;7842;50.904;6.670;2023-06-10T13:57:09;6.80;;;6.20;;
15480;SDS011;7842;50.904;6.670;2023-06-10T13:59:35;7.63;;;6.78;;
15480;SDS011;7842;50.904;6.670;2023-06-10T14:02:01;7.82;;;6.57;;
15480;SDS011;7842;50.904;6.670;2023-06-10T14:04:27;8.57;;;6.20;;
15480;SDS011;7842;50.904;6.670;2023-06-10T14:06:52;6.90;;;6.30;;
15480;SDS011;7842;50.904;6.670;2023-06-10T14:09:18;6.90;;;6.20;;
15480;SDS011;7842;50.904;6.670;2023-06-10T14:11:44;7.13;;;6.53;;
15480;SDS011;7842;50.904;6.670;2023-06-10T14:14:10;6.90;;;6.30;;
15480;SDS011;7842;50.904;6.670;2023-06-10T14:16:36;6.70;;;6.10;;
15480;SDS011;7842;50.904;6.670;2023-06-10T14:19:01;7.40;;;6.70;;
15480;SDS011;7842;50.904;6.670;2023-06-10T14:21:27;7.30;;;6.70;;
15480;SDS011;7842;50.904;6.670;2023-06-10T14:23:53;7.53;;;6.70;;
15480;SDS011;7842;50.904;6.670;2023-06-10T14:26:19;7.37;;;6.63;;
15480;SDS011;7842;50.904;6.670;2023-06-10T14:28:46;7.30;;;6.38;;
15480;SDS011;7842;50.904;6.670;2023-06-10T14:31:12;7.40;;;6.60;;
15480;SDS011;7842;50.904;6.670;2023-06-10T14:33:38;7.05;;;6.35;;
15480;SDS011;7842;50.904;6.670;2023-06-10T14:36:04;7.40;;;6.70;;
15480;SDS011;7842;50.904;6.670;2023-06-10T14:38:30;7.80;;;6.60;;
15480;SDS011;7842;50.904;6.670;2023-06-10T14:40:55;7.10;;;6.40;;
15480;SDS011;7842;50.904;6.670;2023-06-10T14:43:21;7.25;;;6.60;;
15480;SDS011;7842;50.904;6.670;2023-06-10T14:45:47;7.33;;;6.23;;
15480;SDS011;7842;50.904;6.670;2023-06-10T14:48:12;7.67;;;6.17;;
15480;SDS011;7842;50.904;6.670;2023-06-10T14:50:38;7.33;;;6.50;;
15480;SDS011;7842;50.904;6.670;2023-06-10T14:53:05;6.93;;;6.22;;
15480;SDS011;7842;50.904;6.670;2023-06-10T14:55:31;7.13;;;6.43;;
15480;SDS011;7842;50.904;6.670;2023-06-10T14:57:57;7.10;;;6.43;;
15480;SDS011;7842;50.904;6.670;2023-06-10T15:00:23;6.97;;;6.28;;
15480;SDS011;7842;50.904;6.670;2023-06-10T15:02:50;6.75;;;6.15;;